sensor_id;sensor_type;location;lat;lon;timestamp;temperature;humidity
11577;DHT22;5844;51.496;6.788;2023-05-07T00:00:34;16.10;1.00
11577;DHT22;5844;51.496;6.788;2023-05-07T00:02:59;16.10;1.00
11577;DHT22;5844;51.496;6.788;2023-05-07T00:05:25;16.10;1.00
11577;DHT22;5844;51.496;6.788;2023-05-07T00:07:51;16.00;1.00
11577;DHT22;5844;51.496;6.788;2023-05-07T00:10:18;16.00;1.00
11577;DHT22;5844;51.496;6.788;2023-05-07T00:12:44;16.00;1.00
11577;DHT22;5844;51.496;6.788;2023-05-07T00:15:10;16.00;1.00
11577;DHT22;5844;51.496;6.788;2023-05-07T00:17:36;16.00;1.00
11577;DHT22;5844;51.496;6.788;2023-05-07T00:20:03;16.00;1.00
11577;DHT22;5844;51.496;6.788;2023-05-07T00:22:30;16.00;1.00
11577;DHT22;5844;51.496;6.788;2023-05-07T00:24:56;16.00;1.00
11577;DHT22;5844;51.496;6.788;2023-05-07T00:27:22;16.00;1.00
11577;DHT22;5844;51.496;6.788;2023-05-07T00:29:48;15.90;1.00
11577;DHT22;5844;51.496;6.788;2023-05-07T00:32:13;15.90;1.00
11577;DHT22;5844;51.496;6.788;2023-05-07T00:34:39;15.90;1.00
11577;DHT22;5844;51.496;6.788;2023-05-07T00:37:05;15.80;1.00
11577;DHT22;5844;51.496;6.788;2023-05-07T00:39:33;15.80;1.00
11577;DHT22;5844;51.496;6.788;2023-05-07T00:41:59;15.70;1.00
11577;DHT22;5844;51.496;6.788;2023-05-07T00:44:26;15.70;1.00
11577;DHT22;5844;51.496;6.788;2023-05-07T00:46:53;15.70;1.00
11577;DHT22;5844;51.496;6.788;2023-05-07T00:49:19;15.60;1.00
11577;DHT22;5844;51.496;6.788;2023-05-07T00:51:46;15.60;1.00
11577;DHT22;5844;51.496;6.788;2023-05-07T00:54:13;15.50;1.00
11577;DHT22;5844;51.496;6.788;2023-05-07T00:56:39;15.50;1.00
11577;DHT22;5844;51.496;6.788;2023-05-07T00:59:05;15.50;1.00
11577;DHT22;5844;51.496;6.788;2023-05-07T01:01:31;15.50;1.00
11577;DHT22;5844;51.496;6.788;2023-05-07T01:03:57;15.50;1.00
11577;DHT22;5844;51.496;6.788;2023-05-07T01:06:24;15.50;1.00
11577;DHT22;5844;51.496;6.788;2023-05-07T01:08:51;15.60;1.00
11577;DHT22;5844;51.496;6.788;2023-05-07T01:11:18;15.60;1.00
11577;DHT22;5844;51.496;6.788;2023-05-07T01:13:46;15.60;1.00
11577;DHT22;5844;51.496;6.788;2023-05-07T01:16:12;15.60;1.00
11577;DHT22;5844;51.496;6.788;2023-05-07T01:18:38;15.60;1.00
11577;DHT22;5844;51.496;6.788;2023-05-07T01:21:05;15.60;1.00
11577;DHT22;5844;51.496;6.788;2023-05-07T01:23:31;15.60;1.00
11577;DHT22;5844;51.496;6.788;2023-05-07T01:25:57;15.60;1.00
11577;DHT22;5844;51.496;6.788;2023-05-07T01:28:22;15.60;1.00
11577;DHT22;5844;51.496;6.788;2023-05-07T01:30:52;15.50;1.00
11577;DHT22;5844;51.496;6.788;2023-05-07T01:33:20;15.60;1.00
11577;DHT22;5844;51.496;6.788;2023-05-07T01:35:52;15.60;1.00
11577;DHT22;5844;51.496;6.788;2023-05-07T01:38:19;15.60;1.00
11577;DHT22;5844;51.496;6.788;2023-05-07T01:40:45;15.50;1.00
11577;DHT22;5844;51.496;6.788;2023-05-07T01:43:11;15.50;1.00
11577;DHT22;5844;51.496;6.788;2023-05-07T01:45:38;15.50;1.00
11577;DHT22;5844;51.496;6.788;2023-05-07T01:48:07;15.50;1.00
11577;DHT22;5844;51.496;6.788;2023-05-07T01:50:33;15.50;1.00
11577;DHT22;5844;51.496;6.788;2023-05-07T01:53:01;15.50;1.00
11577;DHT22;5844;51.496;6.788;2023-05-07T01:55:27;15.50;1.00
11577;DHT22;5844;51.496;6.788;2023-05-07T01:57:53;15.40;1.00
11577;DHT22;5844;51.496;6.788;2023-05-07T02:00:19;15.40;1.00
11577;DHT22;5844;51.496;6.788;2023-05-07T02:02:45;15.40;1.00
11577;DHT22;5844;51.496;6.788;2023-05-07T02:05:10;15.40;1.00
11577;DHT22;5844;51.496;6.788;2023-05-07T02:07:36;15.40;1.00
11577;DHT22;5844;51.496;6.788;2023-05-07T02:10:02;15.40;1.00
11577;DHT22;5844;51.496;6.788;2023-05-07T02:12:28;15.40;1.00
11577;DHT22;5844;51.496;6.788;2023-05-07T02:14:54;15.30;1.00
11577;DHT22;5844;51.496;6.788;2023-05-07T02:17:19;15.30;1.00
11577;DHT22;5844;51.496;6.788;2023-05-07T02:19:45;15.30;1.00
11577;DHT22;5844;51.496;6.788;2023-05-07T02:22:11;15.30;1.00
11577;DHT22;5844;51.496;6.788;2023-05-07T02:24:36;15.30;1.00
11577;DHT22;5844;51.496;6.788;2023-05-07T02:27:02;15.30;1.00
11577;DHT22;5844;51.496;6.788;2023-05-07T02:29:28;15.20;1.00
11577;DHT22;5844;51.496;6.788;2023-05-07T02:31:54;15.20;1.00
11577;DHT22;5844;51.496;6.788;2023-05-07T02:34:20;15.20;1.00
11577;DHT22;5844;51.496;6.788;2023-05-07T02:36:46;15.20;1.00
11577;DHT22;5844;51.496;6.788;2023-05-07T02:39:13;15.20;1.00
11577;DHT22;5844;51.496;6.788;2023-05-07T02:41:38;15.20;1.00
11577;DHT22;5844;51.496;6.788;2023-05-07T02:44:04;15.20;1.00
11577;DHT22;5844;51.496;6.788;2023-05-07T02:46:30;15.20;1.00
11577;DHT22;5844;51.496;6.788;2023-05-07T02:48:56;15.10;1.00
11577;DHT22;5844;51.496;6.788;2023-05-07T02:51:22;15.10;1.00
11577;DHT22;5844;51.496;6.788;2023-05-07T02:53:48;15.10;1.00
11577;DHT22;5844;51.496;6.788;2023-05-07T02:56:14;15.00;1.00
11577;DHT22;5844;51.496;6.788;2023-05-07T02:58:40;15.00;1.00
11577;DHT22;5844;51.496;6.788;2023-05-07T03:01:07;15.00;1.00
11577;DHT22;5844;51.496;6.788;2023-05-07T03:03:33;15.00;1.00
11577;DHT22;5844;51.496;6.788;2023-05-07T03:05:59;15.00;1.00
11577;DHT22;5844;51.496;6.788;2023-05-07T03:08:25;15.00;1.00
11577;DHT22;5844;51.496;6.788;2023-05-07T03:10:50;15.00;1.00
11577;DHT22;5844;51.496;6.788;2023-05-07T03:13:16;15.00;1.00
11577;DHT22;5844;51.496;6.788;2023-05-07T03:15:42;15.00;1.00
11577;DHT22;5844;51.496;6.788;2023-05-07T03:18:08;15.00;1.00
11577;DHT22;5844;51.496;6.788;2023-05-07T03:20:34;15.00;1.00
11577;DHT22;5844;51.496;6.788;2023-05-07T03:23:00;15.00;1.00
11577;DHT22;5844;51.496;6.788;2023-05-07T03:25:25;15.00;1.00
11577;DHT22;5844;51.496;6.788;2023-05-07T03:27:51;14.90;1.00
11577;DHT22;5844;51.496;6.788;2023-05-07T03:30:17;15.00;1.00
11577;DHT22;5844;51.496;6.788;2023-05-07T03:32:42;15.00;1.00
11577;DHT22;5844;51.496;6.788;2023-05-07T03:35:08;15.00;1.00
11577;DHT22;5844;51.496;6.788;2023-05-07T03:37:34;14.90;1.00
11577;DHT22;5844;51.496;6.788;2023-05-07T03:39:59;14.90;1.00
11577;DHT22;5844;51.496;6.788;2023-05-07T03:42:25;14.90;1.00
11577;DHT22;5844;51.496;6.788;2023-05-07T03:44:51;14.90;1.00
11577;DHT22;5844;51.496;6.788;2023-05-07T03:47:16;14.90;1.00
11577;DHT22;5844;51.496;6.788;2023-05-07T03:52:51;14.90;1.00
11577;DHT22;5844;51.496;6.788;2023-05-07T03:55:17;14.90;1.00
11577;DHT22;5844;51.496;6.788;2023-05-07T03:57:43;14.90;1.00
11577;DHT22;5844;51.496;6.788;2023-05-07T04:00:09;14.80;1.00
11577;DHT22;5844;51.496;6.788;2023-05-07T04:02:35;14.90;1.00
11577;DHT22;5844;51.496;6.788;2023-05-07T04:05:00;14.80;1.00
11577;DHT22;5844;51.496;6.788;2023-05-07T04:07:26;14.80;1.00
11577;DHT22;5844;51.496;6.788;2023-05-07T04:09:52;14.80;1.00
11577;DHT22;5844;51.496;6.788;2023-05-07T04:12:17;14.80;1.00
11577;DHT22;5844;51.496;6.788;2023-05-07T04:14:43;14.80;1.00
11577;DHT22;5844;51.496;6.788;2023-05-07T04:17:08;14.80;1.00
11577;DHT22;5844;51.496;6.788;2023-05-07T04:19:36;14.80;1.00
11577;DHT22;5844;51.496;6.788;2023-05-07T04:22:02;14.80;1.00
11577;DHT22;5844;51.496;6.788;2023-05-07T04:24:30;14.80;1.00
11577;DHT22;5844;51.496;6.788;2023-05-07T04:26:56;14.80;1.00
11577;DHT22;5844;51.496;6.788;2023-05-07T04:29:21;14.70;1.00
11577;DHT22;5844;51.496;6.788;2023-05-07T04:31:47;14.80;1.00
11577;DHT22;5844;51.496;6.788;2023-05-07T04:34:13;14.80;1.00
11577;DHT22;5844;51.496;6.788;2023-05-07T04:36:39;14.80;1.00
11577;DHT22;5844;51.496;6.788;2023-05-07T04:39:05;14.80;1.00
11577;DHT22;5844;51.496;6.788;2023-05-07T04:41:31;14.80;1.00
11577;DHT22;5844;51.496;6.788;2023-05-07T04:43:57;14.80;1.00
11577;DHT22;5844;51.496;6.788;2023-05-07T04:46:24;14.90;1.00
11577;DHT22;5844;51.496;6.788;2023-05-07T04:48:50;14.90;1.00
11577;DHT22;5844;51.496;6.788;2023-05-07T04:51:15;14.80;1.00
11577;DHT22;5844;51.496;6.788;2023-05-07T04:53:41;14.90;1.00
11577;DHT22;5844;51.496;6.788;2023-05-07T04:56:08;14.90;1.00
11577;DHT22;5844;51.496;6.788;2023-05-07T04:58:34;14.90;1.00
11577;DHT22;5844;51.496;6.788;2023-05-07T05:01:00;14.90;1.00
11577;DHT22;5844;51.496;6.788;2023-05-07T05:03:25;14.90;1.00
11577;DHT22;5844;51.496;6.788;2023-05-07T05:05:51;14.90;1.00
11577;DHT22;5844;51.496;6.788;2023-05-07T05:08:18;14.90;1.00
11577;DHT22;5844;51.496;6.788;2023-05-07T05:10:43;14.90;1.00
11577;DHT22;5844;51.496;6.788;2023-05-07T05:13:09;14.90;1.00
11577;DHT22;5844;51.496;6.788;2023-05-07T05:15:38;14.80;1.00
11577;DHT22;5844;51.496;6.788;2023-05-07T05:18:03;14.80;1.00
11577;DHT22;5844;51.496;6.788;2023-05-07T05:20:29;14.80;1.00
11577;DHT22;5844;51.496;6.788;2023-05-07T05:22:55;14.80;1.00
11577;DHT22;5844;51.496;6.788;2023-05-07T05:25:20;14.90;1.00
11577;DHT22;5844;51.496;6.788;2023-05-07T05:27:46;14.90;1.00
11577;DHT22;5844;51.496;6.788;2023-05-07T05:30:12;15.00;1.00
11577;DHT22;5844;51.496;6.788;2023-05-07T05:32:38;15.00;1.00
11577;DHT22;5844;51.496;6.788;2023-05-07T05:35:04;15.00;1.00
11577;DHT22;5844;51.496;6.788;2023-05-07T05:37:29;15.10;1.00
11577;DHT22;5844;51.496;6.788;2023-05-07T05:39:56;15.20;1.00
11577;DHT22;5844;51.496;6.788;2023-05-07T05:42:22;15.30;1.00
11577;DHT22;5844;51.496;6.788;2023-05-07T05:44:48;15.40;1.00
11577;DHT22;5844;51.496;6.788;2023-05-07T05:47:14;15.50;1.00
11577;DHT22;5844;51.496;6.788;2023-05-07T05:49:39;15.60;1.00
11577;DHT22;5844;51.496;6.788;2023-05-07T05:52:05;15.70;1.00
11577;DHT22;5844;51.496;6.788;2023-05-07T05:54:31;15.80;1.00
11577;DHT22;5844;51.496;6.788;2023-05-07T05:56:56;15.90;1.00
11577;DHT22;5844;51.496;6.788;2023-05-07T05:59:22;16.00;1.00
11577;DHT22;5844;51.496;6.788;2023-05-07T06:01:48;16.20;1.00
11577;DHT22;5844;51.496;6.788;2023-05-07T06:04:14;16.30;1.00
11577;DHT22;5844;51.496;6.788;2023-05-07T06:06:39;16.40;1.00
11577;DHT22;5844;51.496;6.788;2023-05-07T06:09:05;16.50;1.00
11577;DHT22;5844;51.496;6.788;2023-05-07T06:11:31;16.60;1.00
11577;DHT22;5844;51.496;6.788;2023-05-07T06:13:58;16.70;1.00
11577;DHT22;5844;51.496;6.788;2023-05-07T06:16:24;16.90;1.00
11577;DHT22;5844;51.496;6.788;2023-05-07T06:18:50;17.00;1.00
11577;DHT22;5844;51.496;6.788;2023-05-07T06:21:16;17.10;1.00
11577;DHT22;5844;51.496;6.788;2023-05-07T06:23:41;17.20;1.00
11577;DHT22;5844;51.496;6.788;2023-05-07T06:26:07;17.30;1.00
11577;DHT22;5844;51.496;6.788;2023-05-07T06:28:33;17.40;1.00
11577;DHT22;5844;51.496;6.788;2023-05-07T06:31:18;17.40;1.00
11577;DHT22;5844;51.496;6.788;2023-05-07T06:33:49;17.40;1.00
11577;DHT22;5844;51.496;6.788;2023-05-07T06:36:15;17.50;1.00
11577;DHT22;5844;51.496;6.788;2023-05-07T06:38:41;17.60;1.00
11577;DHT22;5844;51.496;6.788;2023-05-07T06:41:09;17.70;1.00
11577;DHT22;5844;51.496;6.788;2023-05-07T06:43:35;17.80;1.00
11577;DHT22;5844;51.496;6.788;2023-05-07T06:46:01;17.90;1.00
11577;DHT22;5844;51.496;6.788;2023-05-07T06:48:26;17.90;1.00
11577;DHT22;5844;51.496;6.788;2023-05-07T06:50:52;18.00;1.00
11577;DHT22;5844;51.496;6.788;2023-05-07T06:53:18;18.50;1.00
11577;DHT22;5844;51.496;6.788;2023-05-07T06:55:44;18.20;1.00
11577;DHT22;5844;51.496;6.788;2023-05-07T06:58:09;18.30;1.00
11577;DHT22;5844;51.496;6.788;2023-05-07T07:00:35;18.40;1.00
11577;DHT22;5844;51.496;6.788;2023-05-07T07:03:00;18.50;1.00
11577;DHT22;5844;51.496;6.788;2023-05-07T07:05:26;18.40;1.00
11577;DHT22;5844;51.496;6.788;2023-05-07T07:07:52;18.30;1.00
11577;DHT22;5844;51.496;6.788;2023-05-07T07:10:20;18.40;1.00
11577;DHT22;5844;51.496;6.788;2023-05-07T07:12:46;18.50;1.00
11577;DHT22;5844;51.496;6.788;2023-05-07T07:15:12;18.60;1.00
11577;DHT22;5844;51.496;6.788;2023-05-07T07:17:38;18.70;1.00
11577;DHT22;5844;51.496;6.788;2023-05-07T07:20:04;18.70;1.00
11577;DHT22;5844;51.496;6.788;2023-05-07T07:22:30;18.80;1.00
11577;DHT22;5844;51.496;6.788;2023-05-07T07:24:56;18.90;1.00
11577;DHT22;5844;51.496;6.788;2023-05-07T07:27:21;18.90;1.00
11577;DHT22;5844;51.496;6.788;2023-05-07T07:29:47;18.90;1.00
11577;DHT22;5844;51.496;6.788;2023-05-07T07:32:13;19.00;1.00
11577;DHT22;5844;51.496;6.788;2023-05-07T07:34:38;19.10;1.00
11577;DHT22;5844;51.496;6.788;2023-05-07T07:37:04;19.30;1.00
11577;DHT22;5844;51.496;6.788;2023-05-07T07:39:32;19.40;1.00
11577;DHT22;5844;51.496;6.788;2023-05-07T07:41:58;19.60;1.00
11577;DHT22;5844;51.496;6.788;2023-05-07T07:44:23;19.80;1.00
11577;DHT22;5844;51.496;6.788;2023-05-07T07:46:49;19.90;1.00
11577;DHT22;5844;51.496;6.788;2023-05-07T07:49:15;19.90;1.00
11577;DHT22;5844;51.496;6.788;2023-05-07T07:51:41;19.80;1.00
11577;DHT22;5844;51.496;6.788;2023-05-07T07:54:07;19.60;1.00
11577;DHT22;5844;51.496;6.788;2023-05-07T07:56:33;19.50;1.00
11577;DHT22;5844;51.496;6.788;2023-05-07T07:59:00;19.30;1.00
11577;DHT22;5844;51.496;6.788;2023-05-07T08:01:26;19.40;1.00
11577;DHT22;5844;51.496;6.788;2023-05-07T08:03:52;19.70;1.00
11577;DHT22;5844;51.496;6.788;2023-05-07T08:06:18;20.10;1.00
11577;DHT22;5844;51.496;6.788;2023-05-07T08:08:44;20.30;1.00
11577;DHT22;5844;51.496;6.788;2023-05-07T08:11:09;20.50;1.00
11577;DHT22;5844;51.496;6.788;2023-05-07T08:13:36;20.70;1.00
11577;DHT22;5844;51.496;6.788;2023-05-07T08:16:03;20.90;1.00
11577;DHT22;5844;51.496;6.788;2023-05-07T08:18:30;20.90;1.00
11577;DHT22;5844;51.496;6.788;2023-05-07T08:20:56;21.10;1.00
11577;DHT22;5844;51.496;6.788;2023-05-07T08:23:22;21.20;1.00
11577;DHT22;5844;51.496;6.788;2023-05-07T08:25:48;21.10;1.00
11577;DHT22;5844;51.496;6.788;2023-05-07T08:28:14;21.00;1.00
11577;DHT22;5844;51.496;6.788;2023-05-07T08:30:40;21.00;1.00
11577;DHT22;5844;51.496;6.788;2023-05-07T08:33:08;20.90;1.00
11577;DHT22;5844;51.496;6.788;2023-05-07T08:35:33;20.70;1.00
11577;DHT22;5844;51.496;6.788;2023-05-07T08:37:59;20.90;1.00
11577;DHT22;5844;51.496;6.788;2023-05-07T08:40:26;20.80;1.00
11577;DHT22;5844;51.496;6.788;2023-05-07T08:42:53;20.90;1.00
11577;DHT22;5844;51.496;6.788;2023-05-07T08:45:20;20.90;1.00
11577;DHT22;5844;51.496;6.788;2023-05-07T08:48:01;21.00;1.00
11577;DHT22;5844;51.496;6.788;2023-05-07T08:50:27;21.00;1.00
11577;DHT22;5844;51.496;6.788;2023-05-07T08:52:53;21.00;1.00
11577;DHT22;5844;51.496;6.788;2023-05-07T08:55:20;21.20;1.00
11577;DHT22;5844;51.496;6.788;2023-05-07T08:57:45;21.40;1.00
11577;DHT22;5844;51.496;6.788;2023-05-07T09:00:12;21.80;1.00
11577;DHT22;5844;51.496;6.788;2023-05-07T09:02:38;22.30;1.00
11577;DHT22;5844;51.496;6.788;2023-05-07T09:05:04;22.70;1.00
11577;DHT22;5844;51.496;6.788;2023-05-07T09:07:31;22.90;1.00
11577;DHT22;5844;51.496;6.788;2023-05-07T09:09:57;23.20;1.00
11577;DHT22;5844;51.496;6.788;2023-05-07T09:12:23;23.40;1.00
11577;DHT22;5844;51.496;6.788;2023-05-07T09:14:49;23.70;1.00
11577;DHT22;5844;51.496;6.788;2023-05-07T09:17:18;23.70;1.00
11577;DHT22;5844;51.496;6.788;2023-05-07T09:19:47;24.00;1.00
11577;DHT22;5844;51.496;6.788;2023-05-07T09:22:13;24.40;1.00
11577;DHT22;5844;51.496;6.788;2023-05-07T09:24:39;24.30;1.00
11577;DHT22;5844;51.496;6.788;2023-05-07T09:27:06;24.30;1.00
11577;DHT22;5844;51.496;6.788;2023-05-07T09:29:32;24.60;1.00
11577;DHT22;5844;51.496;6.788;2023-05-07T09:32:08;25.10;1.00
11577;DHT22;5844;51.496;6.788;2023-05-07T09:34:34;25.40;1.00
11577;DHT22;5844;51.496;6.788;2023-05-07T09:37:04;25.40;1.00
11577;DHT22;5844;51.496;6.788;2023-05-07T09:39:48;25.50;1.00
11577;DHT22;5844;51.496;6.788;2023-05-07T09:42:14;25.60;1.00
11577;DHT22;5844;51.496;6.788;2023-05-07T09:44:47;25.40;1.00
11577;DHT22;5844;51.496;6.788;2023-05-07T09:47:18;25.30;1.00
11577;DHT22;5844;51.496;6.788;2023-05-07T09:49:47;25.70;1.00
11577;DHT22;5844;51.496;6.788;2023-05-07T09:52:13;25.60;1.00
11577;DHT22;5844;51.496;6.788;2023-05-07T09:54:40;25.90;1.00
11577;DHT22;5844;51.496;6.788;2023-05-07T09:57:10;26.00;1.00
11577;DHT22;5844;51.496;6.788;2023-05-07T09:59:37;25.60;1.00
11577;DHT22;5844;51.496;6.788;2023-05-07T10:02:04;25.50;1.00
11577;DHT22;5844;51.496;6.788;2023-05-07T10:04:31;26.00;1.00
11577;DHT22;5844;51.496;6.788;2023-05-07T10:06:57;26.40;1.00
11577;DHT22;5844;51.496;6.788;2023-05-07T10:09:25;26.70;1.00
11577;DHT22;5844;51.496;6.788;2023-05-07T10:11:51;26.70;1.00
11577;DHT22;5844;51.496;6.788;2023-05-07T10:14:17;26.80;1.00
11577;DHT22;5844;51.496;6.788;2023-05-07T10:16:44;27.30;1.00
11577;DHT22;5844;51.496;6.788;2023-05-07T10:19:10;27.60;1.00
11577;DHT22;5844;51.496;6.788;2023-05-07T10:21:37;27.90;1.00
11577;DHT22;5844;51.496;6.788;2023-05-07T10:24:05;28.20;1.00
11577;DHT22;5844;51.496;6.788;2023-05-07T10:26:41;28.10;1.00
11577;DHT22;5844;51.496;6.788;2023-05-07T10:29:14;28.50;1.00
11577;DHT22;5844;51.496;6.788;2023-05-07T10:34:12;27.90;1.00
11577;DHT22;5844;51.496;6.788;2023-05-07T10:36:39;27.50;1.00
11577;DHT22;5844;51.496;6.788;2023-05-07T10:39:05;27.50;1.00
11577;DHT22;5844;51.496;6.788;2023-05-07T10:41:31;28.10;1.00
11577;DHT22;5844;51.496;6.788;2023-05-07T10:43:57;28.00;1.00
11577;DHT22;5844;51.496;6.788;2023-05-07T10:46:23;27.80;1.00
11577;DHT22;5844;51.496;6.788;2023-05-07T10:51:27;27.80;1.00
11577;DHT22;5844;51.496;6.788;2023-05-07T10:56:38;27.40;1.00
11577;DHT22;5844;51.496;6.788;2023-05-07T11:02:05;26.90;1.00
11577;DHT22;5844;51.496;6.788;2023-05-07T11:04:32;26.80;1.00
11577;DHT22;5844;51.496;6.788;2023-05-07T11:15:07;27.40;1.00
11577;DHT22;5844;51.496;6.788;2023-05-07T11:17:34;27.50;1.00
11577;DHT22;5844;51.496;6.788;2023-05-07T11:20:01;27.90;1.00
11577;DHT22;5844;51.496;6.788;2023-05-07T11:25:00;29.20;1.00
11577;DHT22;5844;51.496;6.788;2023-05-07T11:27:26;30.20;1.00
11577;DHT22;5844;51.496;6.788;2023-05-07T11:29:52;31.00;1.00
11577;DHT22;5844;51.496;6.788;2023-05-07T11:34:54;31.30;1.00
11577;DHT22;5844;51.496;6.788;2023-05-07T11:37:21;30.70;1.00
11577;DHT22;5844;51.496;6.788;2023-05-07T11:39:47;30.90;1.00
11577;DHT22;5844;51.496;6.788;2023-05-07T11:42:36;30.90;1.00
11577;DHT22;5844;51.496;6.788;2023-05-07T11:45:03;30.70;1.00
11577;DHT22;5844;51.496;6.788;2023-05-07T11:47:33;30.20;1.00
11577;DHT22;5844;51.496;6.788;2023-05-07T11:50:04;29.70;1.00
11577;DHT22;5844;51.496;6.788;2023-05-07T11:52:30;29.40;1.00
11577;DHT22;5844;51.496;6.788;2023-05-07T11:54:57;29.00;1.00
11577;DHT22;5844;51.496;6.788;2023-05-07T11:57:24;28.70;1.00
11577;DHT22;5844;51.496;6.788;2023-05-07T11:59:57;28.60;1.00
11577;DHT22;5844;51.496;6.788;2023-05-07T12:02:23;28.50;1.00
11577;DHT22;5844;51.496;6.788;2023-05-07T12:04:52;29.00;1.00
11577;DHT22;5844;51.496;6.788;2023-05-07T12:07:18;29.40;1.00
11577;DHT22;5844;51.496;6.788;2023-05-07T12:09:45;29.60;1.00
11577;DHT22;5844;51.496;6.788;2023-05-07T12:12:12;29.20;1.00
11577;DHT22;5844;51.496;6.788;2023-05-07T12:14:42;28.70;1.00
11577;DHT22;5844;51.496;6.788;2023-05-07T12:17:08;28.20;1.00
11577;DHT22;5844;51.496;6.788;2023-05-07T12:19:35;27.30;1.00
11577;DHT22;5844;51.496;6.788;2023-05-07T12:22:02;26.70;1.00
11577;DHT22;5844;51.496;6.788;2023-05-07T12:24:28;26.20;1.00
11577;DHT22;5844;51.496;6.788;2023-05-07T12:26:54;25.80;1.00
11577;DHT22;5844;51.496;6.788;2023-05-07T12:29:21;25.60;1.00
11577;DHT22;5844;51.496;6.788;2023-05-07T12:31:49;25.30;1.00
11577;DHT22;5844;51.496;6.788;2023-05-07T12:34:15;25.10;1.00
11577;DHT22;5844;51.496;6.788;2023-05-07T12:36:41;25.00;1.00
11577;DHT22;5844;51.496;6.788;2023-05-07T12:39:10;24.90;1.00
11577;DHT22;5844;51.496;6.788;2023-05-07T12:41:55;24.80;1.00
11577;DHT22;5844;51.496;6.788;2023-05-07T12:44:39;24.50;1.00
11577;DHT22;5844;51.496;6.788;2023-05-07T12:47:05;24.40;1.00
11577;DHT22;5844;51.496;6.788;2023-05-07T12:49:30;24.30;1.00
11577;DHT22;5844;51.496;6.788;2023-05-07T12:51:56;24.20;1.00
11577;DHT22;5844;51.496;6.788;2023-05-07T12:54:29;24.10;1.00
11577;DHT22;5844;51.496;6.788;2023-05-07T12:57:06;24.20;1.00
11577;DHT22;5844;51.496;6.788;2023-05-07T12:59:34;24.10;1.00
11577;DHT22;5844;51.496;6.788;2023-05-07T13:02:00;24.10;1.00
11577;DHT22;5844;51.496;6.788;2023-05-07T13:04:26;24.10;1.00
11577;DHT22;5844;51.496;6.788;2023-05-07T13:06:52;24.00;1.00
11577;DHT22;5844;51.496;6.788;2023-05-07T13:09:17;23.90;1.00
11577;DHT22;5844;51.496;6.788;2023-05-07T13:11:43;23.80;1.00
11577;DHT22;5844;51.496;6.788;2023-05-07T13:14:08;23.90;1.00
11577;DHT22;5844;51.496;6.788;2023-05-07T13:16:34;23.90;1.00
11577;DHT22;5844;51.496;6.788;2023-05-07T13:19:00;23.90;1.00
11577;DHT22;5844;51.496;6.788;2023-05-07T13:21:25;23.90;1.00
11577;DHT22;5844;51.496;6.788;2023-05-07T13:23:52;23.70;1.00
11577;DHT22;5844;51.496;6.788;2023-05-07T13:26:18;23.60;1.00
11577;DHT22;5844;51.496;6.788;2023-05-07T13:28:44;23.30;1.00
11577;DHT22;5844;51.496;6.788;2023-05-07T13:31:12;23.20;1.00
11577;DHT22;5844;51.496;6.788;2023-05-07T13:33:39;23.00;1.00
11577;DHT22;5844;51.496;6.788;2023-05-07T13:36:07;22.80;1.00
11577;DHT22;5844;51.496;6.788;2023-05-07T13:38:32;22.60;1.00
11577;DHT22;5844;51.496;6.788;2023-05-07T13:40:58;22.60;1.00
11577;DHT22;5844;51.496;6.788;2023-05-07T13:43:24;22.40;1.00
11577;DHT22;5844;51.496;6.788;2023-05-07T13:45:51;22.40;1.00
11577;DHT22;5844;51.496;6.788;2023-05-07T13:48:17;22.20;1.00
11577;DHT22;5844;51.496;6.788;2023-05-07T13:50:43;22.00;1.00
11577;DHT22;5844;51.496;6.788;2023-05-07T13:53:08;21.70;1.00
11577;DHT22;5844;51.496;6.788;2023-05-07T13:55:34;21.50;1.00
11577;DHT22;5844;51.496;6.788;2023-05-07T13:58:01;21.40;1.00
11577;DHT22;5844;51.496;6.788;2023-05-07T14:00:28;21.30;1.00
11577;DHT22;5844;51.496;6.788;2023-05-07T14:02:54;21.00;1.00
11577;DHT22;5844;51.496;6.788;2023-05-07T14:05:20;20.90;1.00
11577;DHT22;5844;51.496;6.788;2023-05-07T14:07:46;20.80;1.00
11577;DHT22;5844;51.496;6.788;2023-05-07T14:10:13;20.80;1.00
11577;DHT22;5844;51.496;6.788;2023-05-07T14:12:38;20.90;1.00
11577;DHT22;5844;51.496;6.788;2023-05-07T14:15:04;20.70;1.00
11577;DHT22;5844;51.496;6.788;2023-05-07T14:17:30;20.60;1.00
11577;DHT22;5844;51.496;6.788;2023-05-07T14:19:56;20.60;1.00
11577;DHT22;5844;51.496;6.788;2023-05-07T14:22:22;20.60;1.00
11577;DHT22;5844;51.496;6.788;2023-05-07T14:24:49;20.60;1.00
11577;DHT22;5844;51.496;6.788;2023-05-07T14:27:15;20.70;1.00
11577;DHT22;5844;51.496;6.788;2023-05-07T14:29:41;20.70;1.00
11577;DHT22;5844;51.496;6.788;2023-05-07T14:32:07;20.80;1.00
11577;DHT22;5844;51.496;6.788;2023-05-07T14:34:33;20.90;1.00
11577;DHT22;5844;51.496;6.788;2023-05-07T14:37:00;20.80;1.00
11577;DHT22;5844;51.496;6.788;2023-05-07T14:39:25;20.90;1.00
11577;DHT22;5844;51.496;6.788;2023-05-07T14:41:51;20.90;1.00
11577;DHT22;5844;51.496;6.788;2023-05-07T14:44:20;21.00;1.00
11577;DHT22;5844;51.496;6.788;2023-05-07T14:46:46;20.90;1.00
11577;DHT22;5844;51.496;6.788;2023-05-07T14:49:11;21.00;1.00
11577;DHT22;5844;51.496;6.788;2023-05-07T14:51:43;20.90;1.00
11577;DHT22;5844;51.496;6.788;2023-05-07T14:54:09;20.80;1.00
11577;DHT22;5844;51.496;6.788;2023-05-07T14:56:35;20.70;1.00
11577;DHT22;5844;51.496;6.788;2023-05-07T14:59:02;20.80;1.00
11577;DHT22;5844;51.496;6.788;2023-05-07T15:01:28;20.80;1.00
11577;DHT22;5844;51.496;6.788;2023-05-07T15:03:54;20.90;1.00
11577;DHT22;5844;51.496;6.788;2023-05-07T15:06:21;20.90;1.00
11577;DHT22;5844;51.496;6.788;2023-05-07T15:08:47;20.80;1.00
11577;DHT22;5844;51.496;6.788;2023-05-07T15:11:14;20.80;1.00
11577;DHT22;5844;51.496;6.788;2023-05-07T15:13:39;20.70;1.00
11577;DHT22;5844;51.496;6.788;2023-05-07T15:16:05;20.70;1.00
11577;DHT22;5844;51.496;6.788;2023-05-07T15:18:30;20.60;1.00
11577;DHT22;5844;51.496;6.788;2023-05-07T15:20:56;20.60;1.00
11577;DHT22;5844;51.496;6.788;2023-05-07T15:23:23;20.60;1.00
11577;DHT22;5844;51.496;6.788;2023-05-07T15:25:48;20.60;1.00
11577;DHT22;5844;51.496;6.788;2023-05-07T15:28:14;20.60;1.00
11577;DHT22;5844;51.496;6.788;2023-05-07T15:30:40;20.40;1.00
11577;DHT22;5844;51.496;6.788;2023-05-07T15:33:05;20.10;1.00
11577;DHT22;5844;51.496;6.788;2023-05-07T15:35:31;19.90;1.00
11577;DHT22;5844;51.496;6.788;2023-05-07T15:37:56;19.70;1.00
11577;DHT22;5844;51.496;6.788;2023-05-07T15:40:23;19.50;1.00
11577;DHT22;5844;51.496;6.788;2023-05-07T15:42:48;19.20;1.00
11577;DHT22;5844;51.496;6.788;2023-05-07T15:45:14;19.40;1.00
11577;DHT22;5844;51.496;6.788;2023-05-07T15:47:39;19.70;1.00
11577;DHT22;5844;51.496;6.788;2023-05-07T15:50:06;20.10;1.00
11577;DHT22;5844;51.496;6.788;2023-05-07T15:52:31;20.40;1.00
11577;DHT22;5844;51.496;6.788;2023-05-07T15:54:59;20.70;1.00
11577;DHT22;5844;51.496;6.788;2023-05-07T15:57:24;21.10;1.00
11577;DHT22;5844;51.496;6.788;2023-05-07T15:59:51;21.60;1.00
11577;DHT22;5844;51.496;6.788;2023-05-07T16:02:16;22.10;1.00
11577;DHT22;5844;51.496;6.788;2023-05-07T16:04:42;22.60;1.00
11577;DHT22;5844;51.496;6.788;2023-05-07T16:07:08;22.80;1.00
11577;DHT22;5844;51.496;6.788;2023-05-07T16:09:33;22.70;1.00
11577;DHT22;5844;51.496;6.788;2023-05-07T16:11:59;22.60;1.00
11577;DHT22;5844;51.496;6.788;2023-05-07T16:14:25;22.50;1.00
11577;DHT22;5844;51.496;6.788;2023-05-07T16:16:51;22.40;1.00
11577;DHT22;5844;51.496;6.788;2023-05-07T16:19:16;22.40;1.00
11577;DHT22;5844;51.496;6.788;2023-05-07T16:21:42;22.20;1.00
11577;DHT22;5844;51.496;6.788;2023-05-07T16:24:08;21.90;1.00